sim
Sign-in with your pilot id or email,
or register
Callsign
Passwort

Schedule Details

Flight Number: RYR547 (2)
Departure: Warsaw Modlin Airport (EPMO) at 12:50
Arrival: Gothenburg Landvetter Airport (ESGG) at 14:25
Route: Ryanair Passenger Schedule. Enter filed route here before submitting Pirep.

Weather Information
Getting current METAR information for EPMO 291300Z 21009KT 9999 BKN030 14/07 Q1011
Getting current METAR information for ESGG 291250Z 21003KT 9999 SCT035 09/07 Q1004

Schedule Frequency

Route Map